sensor_id;sensor_type;location;lat;lon;timestamp;P1;durP1;ratioP1;P2;durP2;ratioP2
9763;SDS011;4921;43.214;27.936;2022-09-21T00:01:52;3.27;;;2.97;;
9763;SDS011;4921;43.214;27.936;2022-09-21T00:04:19;4.07;;;3.30;;
9763;SDS011;4921;43.214;27.936;2022-09-21T00:06:47;5.13;;;3.60;;
9763;SDS011;4921;43.214;27.936;2022-09-21T00:09:14;6.33;;;4.83;;
9763;SDS011;4921;43.214;27.936;2022-09-21T00:11:41;6.07;;;4.40;;
9763;SDS011;4921;43.214;27.936;2022-09-21T00:14:10;8.00;;;4.53;;
9763;SDS011;4921;43.214;27.936;2022-09-21T00:16:39;6.07;;;4.90;;
9763;SDS011;4921;43.214;27.936;2022-09-21T00:19:07;6.17;;;5.30;;
9763;SDS011;4921;43.214;27.936;2022-09-21T00:21:34;10.17;;;6.67;;
9763;SDS011;4921;43.214;27.936;2022-09-21T00:24:04;7.80;;;5.87;;
9763;SDS011;4921;43.214;27.936;2022-09-21T00:26:32;10.17;;;5.80;;
9763;SDS011;4921;43.214;27.936;2022-09-21T00:28:59;9.87;;;5.60;;
9763;SDS011;4921;43.214;27.936;2022-09-21T00:31:28;6.63;;;4.40;;
9763;SDS011;4921;43.214;27.936;2022-09-21T00:33:56;4.47;;;3.50;;
9763;SDS011;4921;43.214;27.936;2022-09-21T00:36:24;3.63;;;2.73;;
9763;SDS011;4921;43.214;27.936;2022-09-21T00:38:52;7.90;;;4.03;;
9763;SDS011;4921;43.214;27.936;2022-09-21T00:41:22;5.33;;;3.33;;
9763;SDS011;4921;43.214;27.936;2022-09-21T00:46:51;3.13;;;2.00;;
9763;SDS011;4921;43.214;27.936;2022-09-21T00:49:20;2.90;;;2.30;;
9763;SDS011;4921;43.214;27.936;2022-09-21T00:51:48;2.90;;;2.40;;
9763;SDS011;4921;43.214;27.936;2022-09-21T00:54:19;5.43;;;2.50;;
9763;SDS011;4921;43.214;27.936;2022-09-21T00:56:52;3.03;;;2.73;;
9763;SDS011;4921;43.214;27.936;2022-09-21T00:59:20;4.33;;;2.90;;
9763;SDS011;4921;43.214;27.936;2022-09-21T01:01:48;4.80;;;3.03;;
9763;SDS011;4921;43.214;27.936;2022-09-21T01:04:16;6.13;;;3.20;;
9763;SDS011;4921;43.214;27.936;2022-09-21T01:06:43;6.13;;;3.40;;
9763;SDS011;4921;43.214;27.936;2022-09-21T01:09:12;9.30;;;3.20;;
9763;SDS011;4921;43.214;27.936;2022-09-21T01:11:42;6.07;;;3.10;;
9763;SDS011;4921;43.214;27.936;2022-09-21T01:14:18;7.07;;;3.00;;
9763;SDS011;4921;43.214;27.936;2022-09-21T01:17:00;4.73;;;3.27;;
9763;SDS011;4921;43.214;27.936;2022-09-21T01:19:54;8.23;;;2.97;;
9763;SDS011;4921;43.214;27.936;2022-09-21T01:22:42;6.07;;;3.10;;
9763;SDS011;4921;43.214;27.936;2022-09-21T01:25:22;5.00;;;2.90;;
9763;SDS011;4921;43.214;27.936;2022-09-21T01:30:51;3.73;;;2.70;;
9763;SDS011;4921;43.214;27.936;2022-09-21T01:33:22;4.90;;;3.00;;
9763;SDS011;4921;43.214;27.936;2022-09-21T01:35:54;7.97;;;2.67;;
9763;SDS011;4921;43.214;27.936;2022-09-21T01:38:24;4.80;;;2.97;;
9763;SDS011;4921;43.214;27.936;2022-09-21T01:40:57;4.47;;;2.40;;
9763;SDS011;4921;43.214;27.936;2022-09-21T01:43:29;4.27;;;2.60;;
9763;SDS011;4921;43.214;27.936;2022-09-21T01:46:00;5.03;;;2.67;;
9763;SDS011;4921;43.214;27.936;2022-09-21T01:48:31;7.47;;;2.67;;
9763;SDS011;4921;43.214;27.936;2022-09-21T01:51:01;2.30;;;1.97;;
9763;SDS011;4921;43.214;27.936;2022-09-21T01:53:33;5.10;;;2.40;;
9763;SDS011;4921;43.214;27.936;2022-09-21T01:56:05;2.17;;;2.07;;
9763;SDS011;4921;43.214;27.936;2022-09-21T01:58:38;5.67;;;2.77;;
9763;SDS011;4921;43.214;27.936;2022-09-21T02:01:13;2.93;;;2.73;;
9763;SDS011;4921;43.214;27.936;2022-09-21T02:03:43;5.30;;;3.10;;
9763;SDS011;4921;43.214;27.936;2022-09-21T02:06:15;3.23;;;2.93;;
9763;SDS011;4921;43.214;27.936;2022-09-21T02:08:43;5.93;;;3.20;;
9763;SDS011;4921;43.214;27.936;2022-09-21T02:11:11;4.40;;;3.27;;
9763;SDS011;4921;43.214;27.936;2022-09-21T02:13:39;5.03;;;3.37;;
9763;SDS011;4921;43.214;27.936;2022-09-21T02:16:15;6.70;;;3.17;;
9763;SDS011;4921;43.214;27.936;2022-09-21T02:19:03;5.80;;;3.70;;
9763;SDS011;4921;43.214;27.936;2022-09-21T02:21:39;8.30;;;3.73;;
9763;SDS011;4921;43.214;27.936;2022-09-21T02:24:17;8.20;;;4.33;;
9763;SDS011;4921;43.214;27.936;2022-09-21T02:26:54;5.33;;;3.97;;
9763;SDS011;4921;43.214;27.936;2022-09-21T02:29:30;7.87;;;3.77;;
9763;SDS011;4921;43.214;27.936;2022-09-21T02:32:05;5.97;;;4.00;;
9763;SDS011;4921;43.214;27.936;2022-09-21T02:34:38;3.97;;;3.63;;
9763;SDS011;4921;43.214;27.936;2022-09-21T02:37:11;4.57;;;3.63;;
9763;SDS011;4921;43.214;27.936;2022-09-21T02:39:46;7.60;;;3.20;;
9763;SDS011;4921;43.214;27.936;2022-09-21T02:42:21;6.90;;;3.30;;
9763;SDS011;4921;43.214;27.936;2022-09-21T02:44:54;4.17;;;3.37;;
9763;SDS011;4921;43.214;27.936;2022-09-21T02:47:27;3.43;;;3.00;;
9763;SDS011;4921;43.214;27.936;2022-09-21T02:50:00;5.37;;;3.63;;
9763;SDS011;4921;43.214;27.936;2022-09-21T02:52:31;3.67;;;2.70;;
9763;SDS011;4921;43.214;27.936;2022-09-21T02:55:00;5.07;;;3.17;;
9763;SDS011;4921;43.214;27.936;2022-09-21T02:57:28;4.93;;;3.27;;
9763;SDS011;4921;43.214;27.936;2022-09-21T02:59:56;8.77;;;3.13;;
9763;SDS011;4921;43.214;27.936;2022-09-21T03:02:23;5.87;;;3.47;;
9763;SDS011;4921;43.214;27.936;2022-09-21T03:05:01;3.40;;;3.10;;
9763;SDS011;4921;43.214;27.936;2022-09-21T03:07:29;6.37;;;3.73;;
9763;SDS011;4921;43.214;27.936;2022-09-21T03:09:56;5.27;;;3.70;;
9763;SDS011;4921;43.214;27.936;2022-09-21T03:12:23;6.53;;;4.03;;
9763;SDS011;4921;43.214;27.936;2022-09-21T03:14:50;9.43;;;4.10;;
9763;SDS011;4921;43.214;27.936;2022-09-21T03:17:17;7.80;;;3.97;;
9763;SDS011;4921;43.214;27.936;2022-09-21T03:19:44;5.57;;;4.70;;
9763;SDS011;4921;43.214;27.936;2022-09-21T03:22:12;7.57;;;4.37;;
9763;SDS011;4921;43.214;27.936;2022-09-21T03:24:41;8.50;;;4.20;;
9763;SDS011;4921;43.214;27.936;2022-09-21T03:27:10;7.50;;;4.20;;
9763;SDS011;4921;43.214;27.936;2022-09-21T03:29:38;6.87;;;3.60;;
9763;SDS011;4921;43.214;27.936;2022-09-21T03:32:05;5.37;;;3.83;;
9763;SDS011;4921;43.214;27.936;2022-09-21T03:34:32;4.40;;;3.60;;
9763;SDS011;4921;43.214;27.936;2022-09-21T03:36:59;4.40;;;3.90;;
9763;SDS011;4921;43.214;27.936;2022-09-21T03:39:28;8.03;;;3.80;;
9763;SDS011;4921;43.214;27.936;2022-09-21T03:41:54;6.07;;;3.80;;
9763;SDS011;4921;43.214;27.936;2022-09-21T03:44:22;10.37;;;4.00;;
9763;SDS011;4921;43.214;27.936;2022-09-21T03:46:50;6.63;;;4.03;;
9763;SDS011;4921;43.214;27.936;2022-09-21T03:49:17;4.37;;;3.70;;
9763;SDS011;4921;43.214;27.936;2022-09-21T03:51:45;8.53;;;4.17;;
9763;SDS011;4921;43.214;27.936;2022-09-21T03:54:12;7.80;;;3.73;;
9763;SDS011;4921;43.214;27.936;2022-09-21T03:56:40;8.47;;;3.80;;
9763;SDS011;4921;43.214;27.936;2022-09-21T03:59:07;7.83;;;4.17;;
9763;SDS011;4921;43.214;27.936;2022-09-21T04:01:33;5.90;;;3.60;;
9763;SDS011;4921;43.214;27.936;2022-09-21T04:04:01;9.53;;;3.50;;
9763;SDS011;4921;43.214;27.936;2022-09-21T04:06:28;6.87;;;3.90;;
9763;SDS011;4921;43.214;27.936;2022-09-21T04:08:55;12.03;;;4.10;;
9763;SDS011;4921;43.214;27.936;2022-09-21T04:11:21;5.63;;;3.27;;
9763;SDS011;4921;43.214;27.936;2022-09-21T04:13:50;7.17;;;3.40;;
9763;SDS011;4921;43.214;27.936;2022-09-21T04:16:21;3.90;;;3.30;;
9763;SDS011;4921;43.214;27.936;2022-09-21T04:18:48;6.33;;;3.53;;
9763;SDS011;4921;43.214;27.936;2022-09-21T04:21:15;4.63;;;3.77;;
9763;SDS011;4921;43.214;27.936;2022-09-21T04:23:42;14.50;;;4.13;;
9763;SDS011;4921;43.214;27.936;2022-09-21T04:26:17;4.83;;;3.70;;
9763;SDS011;4921;43.214;27.936;2022-09-21T04:28:46;9.07;;;3.57;;
9763;SDS011;4921;43.214;27.936;2022-09-21T04:31:14;7.07;;;3.40;;
9763;SDS011;4921;43.214;27.936;2022-09-21T04:33:41;7.40;;;3.50;;
9763;SDS011;4921;43.214;27.936;2022-09-21T04:36:08;9.03;;;3.53;;
9763;SDS011;4921;43.214;27.936;2022-09-21T04:38:35;6.37;;;3.50;;
9763;SDS011;4921;43.214;27.936;2022-09-21T04:41:02;6.63;;;3.83;;
9763;SDS011;4921;43.214;27.936;2022-09-21T04:43:29;5.03;;;3.60;;
9763;SDS011;4921;43.214;27.936;2022-09-21T04:45:56;5.40;;;3.33;;
9763;SDS011;4921;43.214;27.936;2022-09-21T04:48:24;7.00;;;3.80;;
9763;SDS011;4921;43.214;27.936;2022-09-21T04:50:51;5.63;;;3.43;;
9763;SDS011;4921;43.214;27.936;2022-09-21T04:53:18;4.77;;;3.57;;
9763;SDS011;4921;43.214;27.936;2022-09-21T04:55:45;6.10;;;3.77;;
9763;SDS011;4921;43.214;27.936;2022-09-21T04:58:12;6.83;;;3.60;;
9763;SDS011;4921;43.214;27.936;2022-09-21T05:00:39;6.13;;;3.77;;
9763;SDS011;4921;43.214;27.936;2022-09-21T05:03:06;4.10;;;3.53;;
9763;SDS011;4921;43.214;27.936;2022-09-21T05:05:34;7.17;;;3.73;;
9763;SDS011;4921;43.214;27.936;2022-09-21T05:08:02;8.67;;;3.70;;
9763;SDS011;4921;43.214;27.936;2022-09-21T05:10:29;6.33;;;3.57;;
9763;SDS011;4921;43.214;27.936;2022-09-21T05:12:55;6.43;;;3.40;;
9763;SDS011;4921;43.214;27.936;2022-09-21T05:15:22;3.83;;;3.40;;
9763;SDS011;4921;43.214;27.936;2022-09-21T05:17:49;4.13;;;3.40;;
9763;SDS011;4921;43.214;27.936;2022-09-21T05:20:16;4.97;;;3.30;;
9763;SDS011;4921;43.214;27.936;2022-09-21T05:22:44;7.57;;;3.07;;
9763;SDS011;4921;43.214;27.936;2022-09-21T05:25:11;3.90;;;2.93;;
9763;SDS011;4921;43.214;27.936;2022-09-21T05:27:38;6.77;;;3.27;;
9763;SDS011;4921;43.214;27.936;2022-09-21T05:30:05;8.27;;;3.00;;
9763;SDS011;4921;43.214;27.936;2022-09-21T05:32:37;8.77;;;3.20;;
9763;SDS011;4921;43.214;27.936;2022-09-21T05:35:12;6.57;;;3.37;;
9763;SDS011;4921;43.214;27.936;2022-09-21T05:37:49;6.57;;;3.23;;
9763;SDS011;4921;43.214;27.936;2022-09-21T05:40:22;5.67;;;2.93;;
9763;SDS011;4921;43.214;27.936;2022-09-21T05:42:50;6.80;;;2.93;;
9763;SDS011;4921;43.214;27.936;2022-09-21T05:45:17;7.93;;;2.80;;
9763;SDS011;4921;43.214;27.936;2022-09-21T05:47:48;8.00;;;3.20;;
9763;SDS011;4921;43.214;27.936;2022-09-21T05:50:24;3.73;;;3.20;;
9763;SDS011;4921;43.214;27.936;2022-09-21T05:53:03;7.40;;;3.60;;
9763;SDS011;4921;43.214;27.936;2022-09-21T05:55:55;3.43;;;2.37;;
9763;SDS011;4921;43.214;27.936;2022-09-21T05:58:25;5.83;;;3.03;;
9763;SDS011;4921;43.214;27.936;2022-09-21T06:01:06;3.20;;;2.90;;
9763;SDS011;4921;43.214;27.936;2022-09-21T06:03:45;4.83;;;2.47;;
9763;SDS011;4921;43.214;27.936;2022-09-21T06:06:18;9.00;;;2.50;;
9763;SDS011;4921;43.214;27.936;2022-09-21T06:08:47;4.17;;;3.20;;
9763;SDS011;4921;43.214;27.936;2022-09-21T06:11:14;2.77;;;2.57;;
9763;SDS011;4921;43.214;27.936;2022-09-21T06:13:41;7.00;;;2.57;;
9763;SDS011;4921;43.214;27.936;2022-09-21T06:16:10;4.07;;;2.20;;
9763;SDS011;4921;43.214;27.936;2022-09-21T06:18:38;4.63;;;2.43;;
9763;SDS011;4921;43.214;27.936;2022-09-21T06:21:06;4.43;;;1.90;;
9763;SDS011;4921;43.214;27.936;2022-09-21T06:23:34;2.90;;;2.37;;
9763;SDS011;4921;43.214;27.936;2022-09-21T06:26:04;5.00;;;2.20;;
9763;SDS011;4921;43.214;27.936;2022-09-21T06:28:30;4.30;;;2.43;;
9763;SDS011;4921;43.214;27.936;2022-09-21T06:30:58;2.77;;;2.43;;
9763;SDS011;4921;43.214;27.936;2022-09-21T06:33:25;2.53;;;2.30;;
9763;SDS011;4921;43.214;27.936;2022-09-21T06:35:52;2.00;;;1.90;;
9763;SDS011;4921;43.214;27.936;2022-09-21T06:38:20;6.20;;;2.30;;
9763;SDS011;4921;43.214;27.936;2022-09-21T06:40:48;3.83;;;2.27;;
9763;SDS011;4921;43.214;27.936;2022-09-21T06:43:17;5.40;;;2.10;;
9763;SDS011;4921;43.214;27.936;2022-09-21T06:45:51;3.37;;;1.90;;
9763;SDS011;4921;43.214;27.936;2022-09-21T06:48:18;2.40;;;2.10;;
9763;SDS011;4921;43.214;27.936;2022-09-21T06:50:45;2.17;;;2.00;;
9763;SDS011;4921;43.214;27.936;2022-09-21T06:53:12;2.87;;;1.70;;
9763;SDS011;4921;43.214;27.936;2022-09-21T06:55:40;2.77;;;1.70;;
9763;SDS011;4921;43.214;27.936;2022-09-21T06:58:07;2.23;;;2.00;;
9763;SDS011;4921;43.214;27.936;2022-09-21T07:00:35;1.87;;;1.70;;
9763;SDS011;4921;43.214;27.936;2022-09-21T07:03:02;3.03;;;1.83;;
9763;SDS011;4921;43.214;27.936;2022-09-21T07:05:29;2.33;;;1.47;;
9763;SDS011;4921;43.214;27.936;2022-09-21T07:07:57;3.70;;;1.57;;
9763;SDS011;4921;43.214;27.936;2022-09-21T07:10:24;6.03;;;1.60;;
9763;SDS011;4921;43.214;27.936;2022-09-21T07:12:52;3.23;;;1.20;;
9763;SDS011;4921;43.214;27.936;2022-09-21T07:15:18;1.40;;;1.30;;
9763;SDS011;4921;43.214;27.936;2022-09-21T07:17:47;1.30;;;1.30;;
9763;SDS011;4921;43.214;27.936;2022-09-21T07:20:14;2.43;;;1.30;;
9763;SDS011;4921;43.214;27.936;2022-09-21T07:22:41;3.53;;;1.60;;
9763;SDS011;4921;43.214;27.936;2022-09-21T07:25:08;2.77;;;1.60;;
9763;SDS011;4921;43.214;27.936;2022-09-21T07:27:35;1.50;;;1.00;;
9763;SDS011;4921;43.214;27.936;2022-09-21T07:30:03;2.50;;;1.30;;
9763;SDS011;4921;43.214;27.936;2022-09-21T07:32:30;3.37;;;1.30;;
9763;SDS011;4921;43.214;27.936;2022-09-21T07:34:58;1.47;;;1.37;;
9763;SDS011;4921;43.214;27.936;2022-09-21T07:37:25;2.87;;;1.20;;
9763;SDS011;4921;43.214;27.936;2022-09-21T07:39:53;1.33;;;1.20;;
9763;SDS011;4921;43.214;27.936;2022-09-21T07:42:20;1.07;;;0.97;;
9763;SDS011;4921;43.214;27.936;2022-09-21T07:44:49;1.87;;;1.20;;
9763;SDS011;4921;43.214;27.936;2022-09-21T07:47:18;1.30;;;1.23;;
9763;SDS011;4921;43.214;27.936;2022-09-21T07:49:45;1.40;;;1.30;;
9763;SDS011;4921;43.214;27.936;2022-09-21T07:52:13;4.07;;;1.10;;
9763;SDS011;4921;43.214;27.936;2022-09-21T07:54:40;1.27;;;1.10;;
9763;SDS011;4921;43.214;27.936;2022-09-21T07:57:07;3.57;;;1.20;;
9763;SDS011;4921;43.214;27.936;2022-09-21T07:59:51;1.93;;;0.93;;
9763;SDS011;4921;43.214;27.936;2022-09-21T08:02:20;1.23;;;1.23;;
9763;SDS011;4921;43.214;27.936;2022-09-21T08:04:47;1.33;;;0.90;;
9763;SDS011;4921;43.214;27.936;2022-09-21T08:07:15;2.97;;;1.10;;
9763;SDS011;4921;43.214;27.936;2022-09-21T08:09:43;2.73;;;1.00;;
9763;SDS011;4921;43.214;27.936;2022-09-21T08:12:13;1.10;;;1.10;;
9763;SDS011;4921;43.214;27.936;2022-09-21T08:14:41;1.30;;;1.30;;
9763;SDS011;4921;43.214;27.936;2022-09-21T08:17:08;2.57;;;0.93;;
9763;SDS011;4921;43.214;27.936;2022-09-21T08:19:35;1.20;;;1.10;;
9763;SDS011;4921;43.214;27.936;2022-09-21T08:22:02;1.73;;;1.10;;
9763;SDS011;4921;43.214;27.936;2022-09-21T08:24:30;1.53;;;0.90;;
9763;SDS011;4921;43.214;27.936;2022-09-21T08:26:57;0.97;;;0.90;;
9763;SDS011;4921;43.214;27.936;2022-09-21T08:29:24;2.10;;;1.27;;
9763;SDS011;4921;43.214;27.936;2022-09-21T08:31:53;2.10;;;1.27;;
9763;SDS011;4921;43.214;27.936;2022-09-21T08:34:20;0.93;;;0.93;;
9763;SDS011;4921;43.214;27.936;2022-09-21T08:36:48;1.80;;;1.70;;
9763;SDS011;4921;43.214;27.936;2022-09-21T08:39:14;3.73;;;1.40;;
9763;SDS011;4921;43.214;27.936;2022-09-21T08:41:46;1.10;;;0.90;;
9763;SDS011;4921;43.214;27.936;2022-09-21T08:44:26;2.00;;;1.20;;
9763;SDS011;4921;43.214;27.936;2022-09-21T08:47:00;1.57;;;1.10;;
9763;SDS011;4921;43.214;27.936;2022-09-21T08:49:30;1.07;;;1.00;;
9763;SDS011;4921;43.214;27.936;2022-09-21T08:52:02;1.67;;;1.10;;
9763;SDS011;4921;43.214;27.936;2022-09-21T08:54:34;1.87;;;1.03;;
9763;SDS011;4921;43.214;27.936;2022-09-21T08:57:09;0.80;;;0.80;;
9763;SDS011;4921;43.214;27.936;2022-09-21T08:59:38;1.13;;;1.07;;
9763;SDS011;4921;43.214;27.936;2022-09-21T09:02:16;2.93;;;0.90;;
9763;SDS011;4921;43.214;27.936;2022-09-21T09:04:56;1.40;;;0.97;;
9763;SDS011;4921;43.214;27.936;2022-09-21T09:07:39;3.07;;;1.47;;
9763;SDS011;4921;43.214;27.936;2022-09-21T09:10:26;1.40;;;0.90;;
9763;SDS011;4921;43.214;27.936;2022-09-21T09:13:05;0.80;;;0.80;;
9763;SDS011;4921;43.214;27.936;2022-09-21T09:16:03;1.40;;;0.90;;
9763;SDS011;4921;43.214;27.936;2022-09-21T09:18:39;1.37;;;0.90;;
9763;SDS011;4921;43.214;27.936;2022-09-21T09:21:11;2.40;;;1.00;;
9763;SDS011;4921;43.214;27.936;2022-09-21T09:23:45;1.80;;;0.87;;
9763;SDS011;4921;43.214;27.936;2022-09-21T09:26:17;1.90;;;1.03;;
9763;SDS011;4921;43.214;27.936;2022-09-21T09:28:52;3.13;;;1.10;;
9763;SDS011;4921;43.214;27.936;2022-09-21T09:31:24;0.90;;;0.90;;
9763;SDS011;4921;43.214;27.936;2022-09-21T09:33:55;0.70;;;0.70;;
9763;SDS011;4921;43.214;27.936;2022-09-21T09:36:26;1.07;;;1.07;;
9763;SDS011;4921;43.214;27.936;2022-09-21T09:38:57;1.30;;;1.20;;
9763;SDS011;4921;43.214;27.936;2022-09-21T09:47:41;0.93;;;0.93;;
9763;SDS011;4921;43.214;27.936;2022-09-21T09:50:17;3.63;;;1.10;;
9763;SDS011;4921;43.214;27.936;2022-09-21T09:52:46;2.03;;;1.00;;
9763;SDS011;4921;43.214;27.936;2022-09-21T09:55:15;2.40;;;0.97;;
9763;SDS011;4921;43.214;27.936;2022-09-21T09:57:44;1.60;;;1.30;;
9763;SDS011;4921;43.214;27.936;2022-09-21T10:00:14;1.10;;;1.10;;
9763;SDS011;4921;43.214;27.936;2022-09-21T10:02:46;1.00;;;1.00;;
9763;SDS011;4921;43.214;27.936;2022-09-21T10:05:19;2.50;;;1.10;;
9763;SDS011;4921;43.214;27.936;2022-09-21T10:07:48;0.93;;;0.93;;
9763;SDS011;4921;43.214;27.936;2022-09-21T10:10:23;1.20;;;1.10;;
9763;SDS011;4921;43.214;27.936;2022-09-21T10:13:01;1.50;;;1.30;;
9763;SDS011;4921;43.214;27.936;2022-09-21T10:15:33;1.73;;;1.63;;
9763;SDS011;4921;43.214;27.936;2022-09-21T10:18:18;1.17;;;1.10;;
9763;SDS011;4921;43.214;27.936;2022-09-21T10:20:54;2.20;;;1.23;;
9763;SDS011;4921;43.214;27.936;2022-09-21T10:23:25;1.63;;;1.17;;
9763;SDS011;4921;43.214;27.936;2022-09-21T10:25:54;1.03;;;1.03;;
9763;SDS011;4921;43.214;27.936;2022-09-21T10:28:25;0.83;;;0.83;;
9763;SDS011;4921;43.214;27.936;2022-09-21T10:31:09;2.03;;;1.13;;
9763;SDS011;4921;43.214;27.936;2022-09-21T10:33:48;1.30;;;1.20;;
9763;SDS011;4921;43.214;27.936;2022-09-21T10:36:23;2.10;;;0.90;;
9763;SDS011;4921;43.214;27.936;2022-09-21T10:38:53;1.33;;;0.90;;
9763;SDS011;4921;43.214;27.936;2022-09-21T10:41:20;1.00;;;1.00;;
9763;SDS011;4921;43.214;27.936;2022-09-21T10:43:47;1.10;;;1.10;;
9763;SDS011;4921;43.214;27.936;2022-09-21T10:46:17;1.87;;;1.00;;
9763;SDS011;4921;43.214;27.936;2022-09-21T10:48:58;1.03;;;1.00;;
9763;SDS011;4921;43.214;27.936;2022-09-21T10:51:26;2.50;;;1.30;;
9763;SDS011;4921;43.214;27.936;2022-09-21T10:53:55;1.33;;;1.10;;
9763;SDS011;4921;43.214;27.936;2022-09-21T10:56:22;6.17;;;4.77;;
9763;SDS011;4921;43.214;27.936;2022-09-21T10:59:09;1.47;;;1.37;;
9763;SDS011;4921;43.214;27.936;2022-09-21T11:01:43;1.13;;;0.90;;
9763;SDS011;4921;43.214;27.936;2022-09-21T11:04:11;1.33;;;0.90;;
9763;SDS011;4921;43.214;27.936;2022-09-21T11:06:43;1.53;;;1.03;;
9763;SDS011;4921;43.214;27.936;2022-09-21T11:09:15;2.20;;;1.07;;
9763;SDS011;4921;43.214;27.936;2022-09-21T11:11:49;0.97;;;0.97;;
9763;SDS011;4921;43.214;27.936;2022-09-21T11:14:29;1.80;;;1.20;;
9763;SDS011;4921;43.214;27.936;2022-09-21T11:17:08;1.00;;;1.00;;
9763;SDS011;4921;43.214;27.936;2022-09-21T11:19:42;2.47;;;1.10;;
9763;SDS011;4921;43.214;27.936;2022-09-21T11:22:15;5.53;;;1.30;;
9763;SDS011;4921;43.214;27.936;2022-09-21T11:24:49;1.37;;;1.10;;
9763;SDS011;4921;43.214;27.936;2022-09-21T11:27:26;2.63;;;0.90;;
9763;SDS011;4921;43.214;27.936;2022-09-21T11:29:57;1.83;;;1.20;;
9763;SDS011;4921;43.214;27.936;2022-09-21T11:35:27;2.97;;;1.17;;
9763;SDS011;4921;43.214;27.936;2022-09-21T11:38:08;1.67;;;1.10;;
9763;SDS011;4921;43.214;27.936;2022-09-21T11:40:45;0.70;;;0.70;;
9763;SDS011;4921;43.214;27.936;2022-09-21T11:43:26;1.63;;;1.00;;
9763;SDS011;4921;43.214;27.936;2022-09-21T11:46:07;2.37;;;1.10;;
9763;SDS011;4921;43.214;27.936;2022-09-21T11:48:51;0.80;;;0.80;;
9763;SDS011;4921;43.214;27.936;2022-09-21T11:51:29;0.80;;;0.80;;
9763;SDS011;4921;43.214;27.936;2022-09-21T11:54:22;1.00;;;1.00;;
9763;SDS011;4921;43.214;27.936;2022-09-21T11:57:08;2.43;;;1.20;;
9763;SDS011;4921;43.214;27.936;2022-09-21T11:59:56;1.37;;;1.00;;
9763;SDS011;4921;43.214;27.936;2022-09-21T12:02:41;4.23;;;1.10;;
9763;SDS011;4921;43.214;27.936;2022-09-21T12:05:28;1.20;;;1.10;;
9763;SDS011;4921;43.214;27.936;2022-09-21T12:08:09;2.47;;;1.50;;
9763;SDS011;4921;43.214;27.936;2022-09-21T12:10:53;1.37;;;1.27;;
9763;SDS011;4921;43.214;27.936;2022-09-21T12:13:26;2.40;;;1.27;;
9763;SDS011;4921;43.214;27.936;2022-09-21T12:16:01;2.40;;;1.20;;
9763;SDS011;4921;43.214;27.936;2022-09-21T12:18:37;2.70;;;1.50;;
9763;SDS011;4921;43.214;27.936;2022-09-21T12:21:14;3.27;;;1.60;;
9763;SDS011;4921;43.214;27.936;2022-09-21T12:23:47;2.27;;;1.40;;
9763;SDS011;4921;43.214;27.936;2022-09-21T12:26:18;2.97;;;1.40;;
9763;SDS011;4921;43.214;27.936;2022-09-21T12:28:49;3.07;;;1.77;;
9763;SDS011;4921;43.214;27.936;2022-09-21T12:31:20;3.87;;;1.37;;
9763;SDS011;4921;43.214;27.936;2022-09-21T12:33:51;4.03;;;1.57;;
9763;SDS011;4921;43.214;27.936;2022-09-21T12:36:26;4.00;;;1.67;;
9763;SDS011;4921;43.214;27.936;2022-09-21T12:38:57;3.10;;;1.83;;
9763;SDS011;4921;43.214;27.936;2022-09-21T12:41:29;2.07;;;1.77;;
9763;SDS011;4921;43.214;27.936;2022-09-21T12:44:03;1.57;;;1.43;;
9763;SDS011;4921;43.214;27.936;2022-09-21T12:46:42;4.43;;;1.50;;
9763;SDS011;4921;43.214;27.936;2022-09-21T12:49:13;2.60;;;1.50;;
9763;SDS011;4921;43.214;27.936;2022-09-21T12:51:47;6.20;;;1.80;;
9763;SDS011;4921;43.214;27.936;2022-09-21T12:54:21;4.27;;;1.57;;
9763;SDS011;4921;43.214;27.936;2022-09-21T12:57:03;2.17;;;1.67;;
9763;SDS011;4921;43.214;27.936;2022-09-21T12:59:39;3.70;;;1.40;;
9763;SDS011;4921;43.214;27.936;2022-09-21T13:02:16;2.50;;;1.43;;
9763;SDS011;4921;43.214;27.936;2022-09-21T13:04:58;4.93;;;1.37;;
9763;SDS011;4921;43.214;27.936;2022-09-21T13:10:29;2.30;;;1.50;;
9763;SDS011;4921;43.214;27.936;2022-09-21T13:13:03;2.20;;;1.70;;
9763;SDS011;4921;43.214;27.936;2022-09-21T13:15:40;2.20;;;1.40;;
9763;SDS011;4921;43.214;27.936;2022-09-21T13:18:15;2.23;;;1.23;;
9763;SDS011;4921;43.214;27.936;2022-09-21T13:20:45;1.43;;;1.33;;
9763;SDS011;4921;43.214;27.936;2022-09-21T13:23:15;1.80;;;1.20;;
9763;SDS011;4921;43.214;27.936;2022-09-21T13:25:46;4.23;;;1.27;;
9763;SDS011;4921;43.214;27.936;2022-09-21T13:28:18;3.80;;;1.23;;
9763;SDS011;4921;43.214;27.936;2022-09-21T13:30:48;1.23;;;1.20;;
9763;SDS011;4921;43.214;27.936;2022-09-21T13:33:38;1.27;;;1.27;;
9763;SDS011;4921;43.214;27.936;2022-09-21T13:36:09;1.57;;;1.43;;
9763;SDS011;4921;43.214;27.936;2022-09-21T13:41:44;1.10;;;1.00;;
9763;SDS011;4921;43.214;27.936;2022-09-21T13:44:19;2.10;;;1.13;;
9763;SDS011;4921;43.214;27.936;2022-09-21T13:47:06;1.30;;;1.10;;
9763;SDS011;4921;43.214;27.936;2022-09-21T13:49:39;1.60;;;1.30;;
9763;SDS011;4921;43.214;27.936;2022-09-21T13:52:25;3.00;;;1.00;;
9763;SDS011;4921;43.214;27.936;2022-09-21T13:54:58;1.17;;;1.17;;
9763;SDS011;4921;43.214;27.936;2022-09-21T13:57:30;1.23;;;1.00;;
9763;SDS011;4921;43.214;27.936;2022-09-21T14:00:07;2.10;;;0.93;;
9763;SDS011;4921;43.214;27.936;2022-09-21T14:02:53;2.87;;;0.87;;
9763;SDS011;4921;43.214;27.936;2022-09-21T14:05:24;1.33;;;0.93;;
9763;SDS011;4921;43.214;27.936;2022-09-21T14:07:56;0.80;;;0.80;;
9763;SDS011;4921;43.214;27.936;2022-09-21T14:10:27;0.90;;;0.90;;
9763;SDS011;4921;43.214;27.936;2022-09-21T14:12:56;0.87;;;0.87;;
9763;SDS011;4921;43.214;27.936;2022-09-21T14:15:36;1.23;;;1.00;;
9763;SDS011;4921;43.214;27.936;2022-09-21T14:18:08;1.03;;;0.90;;
9763;SDS011;4921;43.214;27.936;2022-09-21T14:23:41;3.03;;;1.27;;
9763;SDS011;4921;43.214;27.936;2022-09-21T14:26:56;1.90;;;1.10;;
9763;SDS011;4921;43.214;27.936;2022-09-21T14:29:28;1.57;;;0.97;;
9763;SDS011;4921;43.214;27.936;2022-09-21T14:32:04;3.27;;;1.17;;
9763;SDS011;4921;43.214;27.936;2022-09-21T14:34:40;1.30;;;0.90;;
9763;SDS011;4921;43.214;27.936;2022-09-21T14:37:12;2.80;;;1.00;;
9763;SDS011;4921;43.214;27.936;2022-09-21T14:39:52;2.17;;;0.97;;
9763;SDS011;4921;43.214;27.936;2022-09-21T14:42:23;1.67;;;0.90;;
9763;SDS011;4921;43.214;27.936;2022-09-21T14:44:55;3.37;;;1.13;;
9763;SDS011;4921;43.214;27.936;2022-09-21T14:47:27;3.30;;;1.07;;
9763;SDS011;4921;43.214;27.936;2022-09-21T14:50:22;1.80;;;1.00;;
9763;SDS011;4921;43.214;27.936;2022-09-21T14:58:53;1.10;;;1.00;;
9763;SDS011;4921;43.214;27.936;2022-09-21T15:01:35;1.23;;;1.00;;
9763;SDS011;4921;43.214;27.936;2022-09-21T15:04:28;1.13;;;1.10;;
9763;SDS011;4921;43.214;27.936;2022-09-21T15:07:08;2.30;;;1.33;;
9763;SDS011;4921;43.214;27.936;2022-09-21T15:13:09;1.90;;;1.10;;
9763;SDS011;4921;43.214;27.936;2022-09-21T15:15:47;1.63;;;1.20;;
9763;SDS011;4921;43.214;27.936;2022-09-21T15:18:32;1.10;;;1.00;;
9763;SDS011;4921;43.214;27.936;2022-09-21T15:21:15;1.17;;;1.00;;
9763;SDS011;4921;43.214;27.936;2022-09-21T15:23:46;1.90;;;1.17;;
9763;SDS011;4921;43.214;27.936;2022-09-21T15:26:14;1.10;;;1.10;;
9763;SDS011;4921;43.214;27.936;2022-09-21T15:28:46;3.60;;;1.37;;
9763;SDS011;4921;43.214;27.936;2022-09-21T15:31:17;1.60;;;1.20;;
9763;SDS011;4921;43.214;27.936;2022-09-21T15:33:44;1.83;;;0.90;;
9763;SDS011;4921;43.214;27.936;2022-09-21T15:36:18;4.47;;;1.53;;
9763;SDS011;4921;43.214;27.936;2022-09-21T15:38:46;2.00;;;1.37;;
9763;SDS011;4921;43.214;27.936;2022-09-21T15:41:24;3.30;;;1.40;;
9763;SDS011;4921;43.214;27.936;2022-09-21T15:44:05;1.60;;;1.20;;
9763;SDS011;4921;43.214;27.936;2022-09-21T15:46:40;1.87;;;1.33;;
9763;SDS011;4921;43.214;27.936;2022-09-21T15:49:10;5.90;;;1.20;;
9763;SDS011;4921;43.214;27.936;2022-09-21T15:51:38;5.00;;;1.37;;
9763;SDS011;4921;43.214;27.936;2022-09-21T15:54:14;4.63;;;1.30;;
9763;SDS011;4921;43.214;27.936;2022-09-21T15:56:49;1.40;;;1.20;;
9763;SDS011;4921;43.214;27.936;2022-09-21T15:59:18;3.30;;;0.90;;
9763;SDS011;4921;43.214;27.936;2022-09-21T16:01:48;1.70;;;1.40;;
9763;SDS011;4921;43.214;27.936;2022-09-21T16:04:18;1.43;;;0.93;;